Browder, Kentucky
Current Conditions -  °F | °C
As of 5:55 AM on Sunday 23 Nov 2014 (Local Time) from K2I0 Reporting Station
Broken Clouds Broken Clouds  
Wind Chill: 55°   Ceiling: 4400
Heat Index: 55°   Visibility: 10mi
Dew Point: 41°   Wind: 7mph
Humidity: 59%   Direction: 150°SSE
Pressure: 29.9"   Gusts: NA
Location:  37.2°N, 87.04°W
Report Text: K2I0 231155Z AUTO 15006KT 10SM SCT037 BKN044 BKN060 13/05 A2990 RMK AO2 T01270049 10136 20124
Loading
Personal Weather Stations






























Interactive Weather Map New forecast layout! Learn more

10-Day Weather Forecast

Advertisements
Track Severe Weather on mobile